Time;durP1;ratioP1;P1;durP2;ratioP2;P2;SDS_P1;SDS_P2;PMS_P1;PMS_P2;Temp;Humidity;BMP_temperature;BMP_pressure;BME280_temperature;BME280_humidity;BME280_pressure;Samples;Min_cycle;Max_cycle;Signal;HPM_P1;HPM_P2
2022/07/16 00:03:43;;;;;;;9.10;7.60;;;;;;;18.35;100.00;100217.16;5092011;28;20048;-81
2022/07/16 00:06:08;;;;;;;8.40;7.53;;;;;;;18.38;100.00;100204.97;5108156;28;20040;-81
2022/07/16 00:08:34;;;;;;;9.55;7.50;;;;;;;18.38;100.00;100204.19;5108960;28;20122;-81
2022/07/16 00:10:59;;;;;;;11.32;7.07;;;;;;;18.39;100.00;100209.31;5091720;28;20043;-81
2022/07/16 00:13:25;;;;;;;7.97;7.10;;;;;;;18.41;100.00;100209.59;5091001;28;20028;-81
2022/07/16 00:15:50;;;;;;;11.43;8.00;;;;;;;18.22;100.00;100208.28;5073054;28;20036;-81
2022/07/16 00:21:00;;;;;;;10.52;7.50;;;;;;;18.21;100.00;100192.69;5075364;28;20504;-81
2022/07/16 00:23:26;;;;;;;8.48;7.57;;;;;;;18.28;100.00;100205.56;5072065;28;20044;-85
2022/07/16 00:25:51;;;;;;;8.52;7.65;;;;;;;18.29;100.00;100202.25;5088946;28;20028;-85
2022/07/16 00:28:16;;;;;;;10.82;7.85;;;;;;;18.11;100.00;100199.66;5073809;28;20048;-84
2022/07/16 00:30:42;;;;;;;7.72;7.00;;;;;;;18.04;100.00;100205.66;5106616;28;20119;-84
2022/07/16 00:33:07;;;;;;;7.10;6.25;;;;;;;18.10;100.00;100204.50;5090641;28;20063;-85
2022/07/16 00:35:33;;;;;;;7.43;5.85;;;;;;;18.12;100.00;100210.41;5072050;28;20036;-85
2022/07/16 00:37:59;;;;;;;8.23;5.50;;;;;;;18.14;100.00;100201.50;5071506;28;20048;-84
2022/07/16 00:40:24;;;;;;;8.73;5.93;;;;;;;18.16;100.00;100198.97;5070729;28;20031;-82
2022/07/16 00:42:50;;;;;;;11.50;5.43;;;;;;;18.15;100.00;100198.22;5108061;28;20043;-81
2022/07/16 00:45:15;;;;;;;6.57;5.57;;;;;;;18.06;98.92;100191.91;5091254;28;20036;-81
2022/07/16 00:47:41;;;;;;;7.10;5.50;;;;;;;18.11;99.25;100197.63;5066224;28;20044;-81
2022/07/16 00:50:07;;;;;;;8.07;5.38;;;;;;;18.11;97.93;100192.03;5091537;28;20050;-81
2022/07/16 00:52:36;;;;;;;6.85;5.15;;;;;;;18.08;97.38;100186.59;5067611;28;20027;-81
2022/07/16 00:55:02;;;;;;;6.82;5.10;;;;;;;18.20;96.91;100193.94;5088944;28;20052;-81
2022/07/16 00:57:28;;;;;;;7.50;5.57;;;;;;;18.20;97.45;100193.94;5077189;28;20416;-81
2022/07/16 00:59:54;;;;;;;7.13;5.00;;;;;;;18.18;97.75;100179.63;5074300;28;20050;-82
2022/07/16 01:02:19;;;;;;;7.75;5.78;;;;;;;18.25;97.87;100184.81;5246402;22;20073;-82
2022/07/16 01:04:45;;;;;;;5.95;5.20;;;;;;;18.27;97.80;100199.16;5049790;28;20041;-84
2022/07/16 01:07:11;;;;;;;9.52;5.35;;;;;;;18.34;97.81;100210.00;5084229;28;20094;-84
2022/07/16 01:09:37;;;;;;;6.38;5.18;;;;;;;18.26;95.32;100214.47;5072777;28;20037;-84
2022/07/16 01:12:03;;;;;;;7.55;4.88;;;;;;;18.15;94.90;100219.91;5086998;28;20037;-84
2022/07/16 01:14:28;;;;;;;8.80;5.68;;;;;;;18.06;97.57;100223.56;5073158;28;20041;-84
2022/07/16 01:16:54;;;;;;;6.53;5.05;;;;;;;18.17;97.01;100220.94;5071572;28;20040;-83
2022/07/16 01:19:20;;;;;;;7.30;5.72;;;;;;;18.17;99.66;100218.16;5072972;28;20114;-84
2022/07/16 01:21:45;;;;;;;7.38;6.00;;;;;;;18.18;100.00;100230.16;5071585;28;20071;-84
2022/07/16 01:24:11;;;;;;;7.85;5.57;;;;;;;18.18;100.00;100224.53;5071927;28;20476;-84
2022/07/16 01:26:36;;;;;;;6.65;5.95;;;;;;;18.15;100.00;100215.06;5087894;28;20042;-84
2022/07/16 01:29:02;;;;;;;8.82;6.53;;;;;;;18.15;100.00;100219.91;5072594;28;20048;-84
2022/07/16 01:31:28;;;;;;;9.38;6.70;;;;;;;18.11;100.00;100219.31;5071472;28;20032;-84
2022/07/16 01:36:40;;;;;;;6.97;6.28;;;;;;;18.04;100.00;100214.06;5085213;28;20090;-84
2022/07/16 01:39:06;;;;;;;8.15;6.45;;;;;;;18.06;100.00;100194.72;5071467;28;20508;-84
2022/07/16 01:41:32;;;;;;;7.40;6.53;;;;;;;18.11;100.00;100208.09;5085607;28;20041;-84
2022/07/16 01:43:57;;;;;;;7.13;6.20;;;;;;;18.11;100.00;100222.13;5071956;28;20094;-84
2022/07/16 01:46:23;;;;;;;9.00;6.53;;;;;;;18.11;100.00;100213.72;5072164;28;20043;-84
2022/07/16 01:48:49;;;;;;;9.13;6.53;;;;;;;17.98;100.00;100204.78;5070908;28;20587;-84
2022/07/16 01:51:14;;;;;;;8.95;7.00;;;;;;;18.02;100.00;100217.38;5071900;28;20044;-84
2022/07/16 01:53:40;;;;;;;7.95;6.45;;;;;;;18.05;100.00;100212.81;5071652;28;20497;-84
2022/07/16 01:56:06;;;;;;;8.20;6.88;;;;;;;17.89;100.00;100227.34;5087806;28;20122;-84
2022/07/16 01:58:31;;;;;;;9.32;7.70;;;;;;;17.69;100.00;100217.53;5070224;28;20067;-84
2022/07/16 02:00:57;;;;;;;11.02;7.80;;;;;;;17.74;100.00;100223.75;5075445;28;20485;-84
2022/07/16 02:03:22;;;;;;;11.77;7.35;;;;;;;17.70;100.00;100226.75;5054203;28;20048;-84
2022/07/16 02:05:48;;;;;;;8.23;7.18;;;;;;;17.83;100.00;100237.69;5072598;28;20046;-84
2022/07/16 02:08:14;;;;;;;9.75;7.32;;;;;;;17.85;100.00;100223.94;5072884;28;20059;-84
2022/07/16 02:10:40;;;;;;;7.60;6.82;;;;;;;17.87;100.00;100227.84;5072049;28;20559;-84
2022/07/16 02:13:06;;;;;;;8.02;7.18;;;;;;;17.77;100.00;100222.78;5072279;28;20052;-84
2022/07/16 02:15:32;;;;;;;8.50;6.93;;;;;;;17.82;100.00;100228.50;5079482;28;20095;-84
2022/07/16 02:17:58;;;;;;;8.93;7.38;;;;;;;17.87;100.00;100211.00;5052505;28;20033;-84
2022/07/16 02:20:23;;;;;;;8.77;7.10;;;;;;;17.88;100.00;100220.16;5058555;28;20041;-84
2022/07/16 02:22:50;;;;;;;7.18;6.32;;;;;;;17.86;100.00;100211.47;5071868;28;20028;-84
2022/07/16 02:25:16;;;;;;;7.53;6.72;;;;;;;17.87;100.00;100211.00;5071427;28;20141;-84
2022/07/16 02:28:05;;;;;;;7.88;7.07;;;;;;;17.77;100.00;100217.16;5071327;28;20541;-83
2022/07/16 02:30:27;;;;;;;7.50;6.65;;;;;;;17.82;100.00;100222.88;5072026;28;20047;-83
2022/07/16 02:32:52;;;;;;;10.25;7.13;;;;;;;17.75;100.00;100214.06;5070440;28;20109;-84
2022/07/16 02:35:18;;;;;;;7.70;7.00;;;;;;;17.65;100.00;100205.75;5072183;28;20495;-83
2022/07/16 18:08:26;;;;;;;5.40;4.00;;;;;;;25.57;55.71;100120.34;4377002;26;20041;-84
2022/07/16 18:10:52;;;;;;;6.63;4.40;;;;;;;25.50;55.32;100138.75;5052619;28;20066;-85
2022/07/16 18:13:18;;;;;;;5.50;4.03;;;;;;;25.50;55.83;100135.91;5034702;28;20048;-84
2022/07/16 18:15:43;;;;;;;5.90;4.30;;;;;;;25.35;55.88;100127.09;5034753;28;20048;-84
2022/07/16 18:18:09;;;;;;;6.30;4.32;;;;;;;25.26;55.67;100152.25;5052760;28;20043;-84
2022/07/16 18:20:35;;;;;;;7.45;4.30;;;;;;;25.19;56.00;100158.56;5033612;28;20072;-84
2022/07/16 18:23:01;;;;;;;5.15;4.22;;;;;;;25.22;56.05;100163.16;5035166;28;20084;-84
2022/07/16 18:25:26;;;;;;;5.65;3.97;;;;;;;25.18;56.85;100163.47;5034956;28;20166;-86
2022/07/16 18:27:52;;;;;;;5.63;4.70;;;;;;;25.14;57.64;100167.91;5051307;28;20454;-86
2022/07/16 18:30:17;;;;;;;4.78;4.28;;;;;;;25.05;59.04;100171.88;5034329;28;20489;-83
2022/07/16 18:32:43;;;;;;;5.78;4.07;;;;;;;24.94;60.11;100172.78;5052313;28;20043;-85
2022/07/16 18:35:08;;;;;;;7.30;4.18;;;;;;;24.82;59.47;100182.69;5034696;28;20068;-85
2022/07/16 18:37:34;;;;;;;5.88;4.38;;;;;;;24.78;59.64;100190.72;5044449;28;20103;-85
2022/07/16 18:39:59;;;;;;;6.15;4.30;;;;;;;24.73;60.07;100197.22;5047377;28;20076;-85
2022/07/16 18:42:25;;;;;;;7.50;4.50;;;;;;;24.68;60.80;100200.09;5049795;28;20048;-85
2022/07/16 18:44:50;;;;;;;8.18;5.05;;;;;;;24.59;61.38;100199.16;5032585;28;20496;-85
2022/07/16 18:47:15;;;;;;;7.05;4.18;;;;;;;24.56;61.46;100202.28;5049943;28;20048;-85
2022/07/16 18:49:41;;;;;;;9.82;4.72;;;;;;;24.57;61.48;100210.28;5050299;28;20127;-85
2022/07/16 18:52:07;;;;;;;8.38;4.90;;;;;;;24.53;63.56;100220.38;5049644;28;20033;-85
2022/07/16 18:54:33;;;;;;;13.40;5.07;;;;;;;24.44;64.56;100215.03;5028927;28;20046;-85
2022/07/16 18:56:58;;;;;;;6.70;4.80;;;;;;;24.37;65.29;100233.41;5032725;28;20566;-85
2022/07/16 18:59:24;;;;;;;7.05;4.40;;;;;;;24.34;64.85;100230.84;5045026;28;20048;-85
2022/07/16 19:01:50;;;;;;;5.88;4.47;;;;;;;24.19;66.13;100236.88;5036848;28;20052;-85
2022/07/16 19:04:15;;;;;;;7.60;4.53;;;;;;;24.18;65.77;100245.94;5069752;28;20087;-84
2022/07/16 19:06:42;;;;;;;7.85;4.60;;;;;;;24.18;65.22;100245.94;5049863;28;20048;-85
2022/07/16 19:09:08;;;;;;;6.10;4.30;;;;;;;24.11;64.66;100244.38;5049422;28;20470;-84
2022/07/16 19:11:33;;;;;;;8.45;4.65;;;;;;;24.06;63.82;100248.03;5047980;28;20135;-86
2022/07/16 19:13:59;;;;;;;7.75;4.70;;;;;;;24.08;63.56;100246.22;5071581;28;20049;-84
2022/07/16 19:16:31;;;;;;;7.00;4.60;;;;;;;24.04;60.29;100261.94;5071519;28;20113;-82
2022/07/16 19:18:57;;;;;;;5.50;4.80;;;;;;;24.02;60.20;100259.63;5071816;28;20425;-84
2022/07/16 19:21:22;;;;;;;6.35;4.78;;;;;;;23.98;60.56;100261.97;5052926;28;20036;-81
2022/07/16 19:23:48;;;;;;;6.00;4.20;;;;;;;23.94;60.02;100258.66;5067730;28;20086;-82
2022/07/16 19:26:19;;;;;;;7.45;4.72;;;;;;;23.93;59.86;100265.63;5070679;28;20090;-80
2022/07/16 19:28:46;;;;;;;6.93;4.47;;;;;;;23.87;60.47;100264.88;5070907;28;20044;-81
2022/07/16 19:31:12;;;;;;;7.75;4.07;;;;;;;23.70;60.35;100250.81;5070629;28;20079;-82
2022/07/16 19:33:38;;;;;;;7.60;4.22;;;;;;;23.52;58.27;100273.31;5070603;28;20037;-84
2022/07/16 19:36:04;;;;;;;8.52;4.50;;;;;;;23.42;57.14;100278.44;5069988;28;20036;-82
2022/07/16 19:38:30;;;;;;;6.00;3.90;;;;;;;23.32;55.25;100273.59;5070735;28;20040;-86
2022/07/16 19:40:56;;;;;;;5.35;3.90;;;;;;;23.33;52.45;100286.47;5069309;28;20044;-86
2022/07/16 19:43:21;;;;;;;5.97;3.95;;;;;;;23.31;51.97;100286.22;5067095;28;20045;-83
2022/07/16 19:45:47;;;;;;;4.45;3.67;;;;;;;23.34;52.40;100300.09;5063092;28;20523;-83
2022/07/16 19:48:12;;;;;;;5.40;3.88;;;;;;;23.29;52.53;100300.13;5061250;28;20507;-85
2022/07/16 19:50:38;;;;;;;5.70;3.67;;;;;;;23.21;52.33;100306.28;5071392;28;20036;-90
2022/07/16 19:53:04;;;;;;;5.95;3.97;;;;;;;23.15;53.38;100302.72;5072667;28;20495;-89
2022/07/16 19:58:28;;;;;;;5.45;3.85;;;;;;;22.92;53.36;100306.88;5048821;28;20153;-89
2022/07/16 20:00:53;;;;;;;8.18;3.90;;;;;;;22.93;51.77;100313.31;5074386;28;20036;-89
2022/07/16 20:03:19;;;;;;;5.57;3.83;;;;;;;22.94;52.22;100329.75;5046714;28;20127;-89
2022/07/16 20:05:44;;;;;;;6.38;3.70;;;;;;;22.95;52.27;100324.88;5048746;28;20021;-89
2022/07/16 20:08:10;;;;;;;4.88;4.00;;;;;;;22.91;52.17;100316.66;5063406;28;20105;-89
2022/07/16 20:10:36;;;;;;;5.30;3.60;;;;;;;22.94;50.55;100337.47;5025133;28;20491;-89
2022/07/16 20:13:03;;;;;;;5.45;3.50;;;;;;;22.96;50.02;100351.88;5064885;28;20037;-89
2022/07/16 20:15:28;;;;;;;6.40;3.92;;;;;;;22.93;50.16;100339.53;5065886;28;20079;-89
2022/07/16 20:17:54;;;;;;;6.63;3.72;;;;;;;22.86;49.65;100331.56;5050520;28;20072;-89
2022/07/16 20:20:19;;;;;;;4.25;3.53;;;;;;;22.85;48.24;100341.31;5068235;28;20036;-89
2022/07/16 20:22:45;;;;;;;4.93;3.75;;;;;;;22.75;48.31;100340.84;5031735;28;20056;-88
2022/07/16 20:25:13;;;;;;;6.75;3.08;;;;;;;22.81;48.50;100352.13;5062406;28;20056;-83
2022/07/16 20:27:44;;;;;;;4.60;3.30;;;;;;;22.61;47.93;100338.97;5060446;28;20032;-83
2022/07/16 20:30:10;;;;;;;6.22;3.45;;;;;;;22.66;47.53;100349.53;5072603;28;20067;-84
2022/07/16 20:32:36;;;;;;;5.00;3.28;;;;;;;22.64;47.37;100354.16;5055479;28;20040;-82
2022/07/16 20:35:02;;;;;;;5.90;3.50;;;;;;;22.61;47.02;100353.13;5048604;28;20070;-83
2022/07/16 20:37:28;;;;;;;4.32;3.25;;;;;;;22.62;45.58;100353.91;5066979;28;20048;-85
2022/07/16 20:39:53;;;;;;;5.18;2.97;;;;;;;22.65;45.08;100359.28;5068076;28;20041;-82
2022/07/16 20:42:19;;;;;;;5.60;3.00;;;;;;;22.62;44.83;100345.41;5065402;28;20392;-83
2022/07/16 20:44:44;;;;;;;4.22;2.55;;;;;;;22.59;44.55;100378.31;5066892;28;20044;-86
2022/07/16 20:47:11;;;;;;;5.32;2.83;;;;;;;22.57;44.04;100365.97;5067679;28;20044;-84
2022/07/16 20:49:37;;;;;;;5.93;2.72;;;;;;;22.49;43.90;100374.19;5064887;28;20123;-84
2022/07/16 20:52:02;;;;;;;4.13;2.83;;;;;;;22.49;43.10;100379.06;5048913;28;20553;-83
2022/07/16 20:54:28;;;;;;;6.18;2.72;;;;;;;22.39;43.07;100372.09;5067889;28;20048;-88
2022/07/16 20:56:53;;;;;;;4.32;2.67;;;;;;;22.39;43.01;100384.19;5067705;28;20496;-83
2022/07/16 20:59:19;;;;;;;8.55;3.15;;;;;;;22.30;43.20;100382.38;5064987;28;20502;-81
2022/07/16 21:01:45;;;;;;;7.20;2.55;;;;;;;22.25;43.03;100385.94;5064246;28;20071;-86
2022/07/16 21:04:10;;;;;;;4.57;2.30;;;;;;;22.17;42.87;100389.78;5066251;28;20045;-90
2022/07/16 21:06:36;;;;;;;6.65;2.30;;;;;;;22.16;43.18;100396.72;5047071;28;20036;-88
2022/07/16 21:09:01;;;;;;;5.15;2.60;;;;;;;22.19;42.77;100399.31;5068639;28;20044;-90
2022/07/16 21:11:27;;;;;;;3.30;2.35;;;;;;;22.14;42.19;100400.03;5049555;28;20159;-90
2022/07/16 21:13:53;;;;;;;3.22;2.58;;;;;;;22.07;41.93;100409.00;5067640;28;20131;-90
2022/07/16 21:16:18;;;;;;;3.38;2.28;;;;;;;22.09;42.19;100419.78;5068177;28;20064;-89
2022/07/16 21:18:44;;;;;;;5.88;2.97;;;;;;;22.04;42.38;100421.31;5062942;28;20056;-89
2022/07/16 21:21:09;;;;;;;3.88;2.38;;;;;;;22.06;42.52;100430.06;5052222;28;20082;-89
2022/07/16 21:23:35;;;;;;;5.88;2.58;;;;;;;22.01;41.98;100433.63;5062920;28;20041;-90
2022/07/16 21:26:01;;;;;;;6.75;2.20;;;;;;;21.99;41.96;100452.38;5072648;28;20047;-94
2022/07/16 21:28:26;;;;;;;7.47;2.25;;;;;;;21.96;42.17;100448.50;5059044;28;20559;-91
2022/07/16 21:30:52;;;;;;;4.22;2.42;;;;;;;21.92;43.07;100458.50;5071805;28;20040;-90
2022/07/16 21:33:17;;;;;;;2.80;2.42;;;;;;;21.86;43.29;100466.91;5059221;28;20080;-92
2022/07/16 21:35:43;;;;;;;5.55;2.70;;;;;;;21.81;43.50;100459.94;5073182;28;20052;-90
2022/07/16 21:38:08;;;;;;;5.13;2.35;;;;;;;21.69;43.90;100457.56;5073643;28;20115;-91
2022/07/16 21:40:34;;;;;;;4.22;2.30;;;;;;;21.69;43.86;100466.03;5073810;28;20041;-91
2022/07/16 21:42:59;;;;;;;3.92;2.40;;;;;;;21.66;44.11;100475.50;5072575;28;20036;-89
2022/07/16 21:45:25;;;;;;;3.92;2.30;;;;;;;21.59;43.81;100479.56;5074426;28;20086;-89
2022/07/16 21:47:51;;;;;;;5.22;2.20;;;;;;;21.55;44.22;100486.72;5071789;28;20043;-90
2022/07/16 21:50:17;;;;;;;4.53;2.38;;;;;;;21.52;44.27;100484.88;5061302;28;20484;-90
2022/07/16 21:52:42;;;;;;;3.75;2.20;;;;;;;21.49;43.94;100488.72;5072690;28;20028;-90
2022/07/16 21:55:08;;;;;;;3.38;2.30;;;;;;;21.43;44.14;100493.56;5072255;28;20528;-90
2022/07/16 21:57:34;;;;;;;2.80;2.20;;;;;;;21.42;44.04;100494.81;5069204;28;20044;-90
2022/07/16 22:00:00;;;;;;;4.80;2.40;;;;;;;21.40;43.69;100490.44;5072325;28;20048;-90
2022/07/16 22:02:25;;;;;;;4.35;2.13;;;;;;;21.39;44.13;100491.72;5054104;28;20029;-90
2022/07/16 22:04:51;;;;;;;4.50;2.45;;;;;;;21.27;44.56;100501.38;5072352;28;20128;-90
2022/07/16 22:07:17;;;;;;;4.15;2.30;;;;;;;21.30;44.03;100508.06;5070396;28;20044;-90
2022/07/16 22:09:42;;;;;;;6.90;2.50;;;;;;;21.25;44.84;100501.09;5073556;28;20465;-93
2022/07/16 22:12:08;;;;;;;3.53;2.40;;;;;;;21.20;45.06;100501.81;5073294;28;20495;-90
2022/07/16 22:14:33;;;;;;;4.75;2.30;;;;;;;21.23;44.76;100511.34;5071964;28;20120;-91
2022/07/16 22:16:59;;;;;;;5.38;2.50;;;;;;;21.07;45.64;100498.59;5076733;28;20069;-90
2022/07/16 22:22:08;;;;;;;4.40;2.40;;;;;;;21.04;46.77;100513.69;5082945;28;20028;-90
2022/07/16 22:24:34;;;;;;;4.97;2.30;;;;;;;20.95;46.99;100520.28;5077969;28;20036;-90
2022/07/16 22:26:59;;;;;;;5.07;2.30;;;;;;;20.84;46.89;100525.03;5075840;28;20073;-90
2022/07/16 22:29:25;;;;;;;4.65;2.58;;;;;;;20.73;47.18;100528.50;5072789;28;20029;-90
2022/07/16 22:31:50;;;;;;;4.63;2.15;;;;;;;20.64;47.29;100522.22;5071343;28;20037;-90
2022/07/16 22:34:16;;;;;;;6.97;2.50;;;;;;;20.52;47.52;100512.09;5071957;28;20415;-90
2022/07/16 22:36:41;;;;;;;4.13;2.20;;;;;;;20.52;47.20;100526.19;5071627;28;20051;-92
2022/07/16 22:39:07;;;;;;;3.35;2.28;;;;;;;20.46;47.32;100528.94;5073044;28;20051;-91
2022/07/16 22:41:33;;;;;;;4.18;2.33;;;;;;;20.45;47.10;100528.19;5072266;28;20067;-91
2022/07/16 22:43:58;;;;;;;4.07;2.53;;;;;;;20.52;47.00;100534.63;5071266;28;20051;-90
2022/07/16 22:46:24;;;;;;;5.38;2.38;;;;;;;20.52;47.23;100531.81;5070817;28;20151;-91
2022/07/16 22:48:49;;;;;;;3.67;2.58;;;;;;;20.45;47.47;100539.44;5071718;28;20113;-91
2022/07/16 22:51:15;;;;;;;4.10;2.55;;;;;;;20.33;47.55;100531.34;5071636;28;20040;-90
2022/07/16 22:53:40;;;;;;;3.40;2.28;;;;;;;20.17;48.26;100545.94;5071227;28;20040;-90
2022/07/16 22:56:06;;;;;;;5.10;2.50;;;;;;;20.10;48.22;100544.28;5074734;28;20032;-90
2022/07/16 22:58:33;;;;;;;4.72;2.58;;;;;;;20.06;48.21;100546.53;5062002;28;20049;-90
2022/07/16 23:00:59;;;;;;;4.03;2.35;;;;;;;20.03;48.06;100530.63;5070584;28;20036;-90
2022/07/16 23:03:25;;;;;;;4.03;2.20;;;;;;;20.01;48.41;100550.84;5063569;28;20048;-91
2022/07/16 23:05:51;;;;;;;4.18;2.38;;;;;;;20.02;48.37;100545.97;5070728;28;20051;-91
2022/07/16 23:08:16;;;;;;;3.85;2.30;;;;;;;19.99;48.77;100549.78;5070234;28;20389;-90
2022/07/16 23:10:42;;;;;;;5.82;2.13;;;;;;;19.99;48.51;100552.59;5069745;28;20048;-91
2022/07/16 23:13:07;;;;;;;4.78;2.50;;;;;;;19.95;48.40;100549.19;5052912;28;20034;-91
2022/07/16 23:15:33;;;;;;;3.67;2.20;;;;;;;19.93;48.79;100555.34;5077362;28;20185;-93
2022/07/16 23:17:59;;;;;;;3.08;2.17;;;;;;;19.79;48.96;100555.34;5036726;28;20041;-92
2022/07/16 23:20:28;;;;;;;5.03;2.20;;;;;;;19.77;48.89;100558.69;5070511;28;20036;-92
2022/07/16 23:22:55;;;;;;;4.07;2.10;;;;;;;19.66;49.03;100557.69;5068232;28;20519;-90
2022/07/16 23:25:20;;;;;;;2.95;2.15;;;;;;;19.62;49.22;100562.75;5070415;28;20068;-89
2022/07/16 23:27:46;;;;;;;4.78;2.30;;;;;;;19.56;49.20;100571.13;5068845;28;20480;-90
2022/07/16 23:30:12;;;;;;;3.13;2.33;;;;;;;19.53;49.64;100566.47;5075896;28;20048;-90
2022/07/16 23:32:37;;;;;;;4.20;2.15;;;;;;;19.45;49.81;100580.13;5074307;28;20044;-90
2022/07/16 23:35:03;;;;;;;3.63;2.30;;;;;;;19.39;49.80;100582.06;5067170;28;20513;-92
2022/07/16 23:37:29;;;;;;;3.78;2.30;;;;;;;19.38;49.95;100586.13;5067738;28;20705;-92
2022/07/16 23:39:54;;;;;;;5.28;2.42;;;;;;;19.33;49.85;100586.03;5069792;28;20603;-91
2022/07/16 23:42:20;;;;;;;3.67;2.22;;;;;;;19.31;49.77;100589.31;5069516;28;20036;-92
2022/07/16 23:44:45;;;;;;;5.20;2.22;;;;;;;19.35;49.54;100598.34;5069346;28;20040;-90
2022/07/16 23:47:11;;;;;;;3.10;1.95;;;;;;;19.34;49.41;100596.78;5068309;28;20373;-92
2022/07/16 23:49:36;;;;;;;4.18;1.95;;;;;;;19.35;49.37;100597.56;5050071;28;20522;-90
2022/07/16 23:52:02;;;;;;;4.00;2.25;;;;;;;19.32;49.44;100602.13;5069487;28;20524;-91
2022/07/16 23:54:27;;;;;;;4.97;2.17;;;;;;;19.29;49.41;100591.81;5069926;28;20048;-90
2022/07/16 23:56:53;;;;;;;3.42;2.00;;;;;;;19.21;49.97;100596.28;5052664;28;20053;-91
2022/07/16 23:59:19;;;;;;;4.30;2.40;;;;;;;19.23;49.87;100607.84;5070402;28;20068;-91
